sensor_id;sensor_type;location;lat;lon;timestamp;P1;durP1;ratioP1;P2;durP2;ratioP2
70385;SDS011;63206;55.650;37.500;2022-09-09T00:02:19;4.97;;;2.30;;
70385;SDS011;63206;55.650;37.500;2022-09-09T00:04:43;4.63;;;2.10;;
70385;SDS011;63206;55.650;37.500;2022-09-09T00:07:18;6.00;;;2.28;;
70385;SDS011;63206;55.650;37.500;2022-09-09T00:13:12;4.88;;;2.10;;
70385;SDS011;63206;55.650;37.500;2022-09-09T00:15:24;5.93;;;2.10;;
70385;SDS011;63206;55.650;37.500;2022-09-09T00:18:06;5.50;;;2.30;;
70385;SDS011;63206;55.650;37.500;2022-09-09T00:23:29;6.10;;;2.17;;
70385;SDS011;63206;55.650;37.500;2022-09-09T00:28:31;5.85;;;1.90;;
70385;SDS011;63206;55.650;37.500;2022-09-09T00:31:12;5.63;;;2.20;;
70385;SDS011;63206;55.650;37.500;2022-09-09T00:33:42;6.35;;;2.00;;
70385;SDS011;63206;55.650;37.500;2022-09-09T00:36:15;6.50;;;2.25;;
70385;SDS011;63206;55.650;37.500;2022-09-09T00:38:47;6.03;;;2.40;;
70385;SDS011;63206;55.650;37.500;2022-09-09T00:41:18;5.20;;;2.25;;
70385;SDS011;63206;55.650;37.500;2022-09-09T00:44:33;5.18;;;2.20;;
70385;SDS011;63206;55.650;37.500;2022-09-09T00:49:59;5.72;;;2.08;;
70385;SDS011;63206;55.650;37.500;2022-09-09T00:57:35;5.88;;;2.28;;
70385;SDS011;63206;55.650;37.500;2022-09-09T01:00:27;5.50;;;2.38;;
70385;SDS011;63206;55.650;37.500;2022-09-09T01:08:17;8.65;;;2.50;;
70385;SDS011;63206;55.650;37.500;2022-09-09T01:10:53;7.90;;;2.55;;
70385;SDS011;63206;55.650;37.500;2022-09-09T01:13:28;6.05;;;2.20;;
70385;SDS011;63206;55.650;37.500;2022-09-09T01:16:03;6.70;;;2.40;;
70385;SDS011;63206;55.650;37.500;2022-09-09T01:18:39;4.68;;;2.28;;
70385;SDS011;63206;55.650;37.500;2022-09-09T01:26:30;7.75;;;2.72;;
70385;SDS011;63206;55.650;37.500;2022-09-09T01:29:19;4.65;;;2.20;;
70385;SDS011;63206;55.650;37.500;2022-09-09T01:31:56;5.68;;;2.40;;
70385;SDS011;63206;55.650;37.500;2022-09-09T01:34:31;6.15;;;2.30;;
70385;SDS011;63206;55.650;37.500;2022-09-09T01:37:10;7.28;;;2.58;;
70385;SDS011;63206;55.650;37.500;2022-09-09T01:42:11;6.05;;;2.72;;
70385;SDS011;63206;55.650;37.500;2022-09-09T01:44:43;7.30;;;2.95;;
70385;SDS011;63206;55.650;37.500;2022-09-09T01:47:12;9.18;;;2.90;;
70385;SDS011;63206;55.650;37.500;2022-09-09T01:49:55;7.32;;;3.00;;
70385;SDS011;63206;55.650;37.500;2022-09-09T01:52:30;6.85;;;2.63;;
70385;SDS011;63206;55.650;37.500;2022-09-09T01:54:56;7.60;;;2.90;;
70385;SDS011;63206;55.650;37.500;2022-09-09T01:57:30;7.03;;;2.97;;
70385;SDS011;63206;55.650;37.500;2022-09-09T02:07:50;7.25;;;2.70;;
70385;SDS011;63206;55.650;37.500;2022-09-09T02:10:33;7.22;;;2.85;;
70385;SDS011;63206;55.650;37.500;2022-09-09T02:13:20;7.60;;;2.95;;
70385;SDS011;63206;55.650;37.500;2022-09-09T02:16:00;7.68;;;2.88;;
70385;SDS011;63206;55.650;37.500;2022-09-09T02:21:37;7.13;;;2.80;;
70385;SDS011;63206;55.650;37.500;2022-09-09T02:24:09;8.88;;;3.00;;
70385;SDS011;63206;55.650;37.500;2022-09-09T02:26:45;8.27;;;3.20;;
70385;SDS011;63206;55.650;37.500;2022-09-09T02:29:26;10.55;;;3.05;;
70385;SDS011;63206;55.650;37.500;2022-09-09T02:31:58;8.77;;;3.28;;
70385;SDS011;63206;55.650;37.500;2022-09-09T02:34:35;6.47;;;2.90;;
70385;SDS011;63206;55.650;37.500;2022-09-09T02:37:02;8.85;;;2.90;;
70385;SDS011;63206;55.650;37.500;2022-09-09T02:39:31;6.47;;;2.78;;
70385;SDS011;63206;55.650;37.500;2022-09-09T02:41:57;7.75;;;3.10;;
70385;SDS011;63206;55.650;37.500;2022-09-09T02:44:29;6.95;;;2.88;;
70385;SDS011;63206;55.650;37.500;2022-09-09T02:55:17;8.20;;;3.10;;
70385;SDS011;63206;55.650;37.500;2022-09-09T02:57:49;9.52;;;3.85;;
70385;SDS011;63206;55.650;37.500;2022-09-09T03:00:21;7.88;;;2.80;;
70385;SDS011;63206;55.650;37.500;2022-09-09T03:02:48;8.32;;;2.90;;
70385;SDS011;63206;55.650;37.500;2022-09-09T03:05:16;6.82;;;2.97;;
70385;SDS011;63206;55.650;37.500;2022-09-09T03:07:42;7.10;;;3.00;;
70385;SDS011;63206;55.650;37.500;2022-09-09T03:10:09;8.52;;;2.90;;
70385;SDS011;63206;55.650;37.500;2022-09-09T03:12:39;8.88;;;3.45;;
70385;SDS011;63206;55.650;37.500;2022-09-09T03:15:08;9.68;;;3.22;;
70385;SDS011;63206;55.650;37.500;2022-09-09T03:17:39;8.85;;;3.38;;
70385;SDS011;63206;55.650;37.500;2022-09-09T03:20:12;7.47;;;3.17;;
70385;SDS011;63206;55.650;37.500;2022-09-09T03:22:44;12.68;;;4.55;;
70385;SDS011;63206;55.650;37.500;2022-09-09T03:25:10;8.77;;;3.35;;
70385;SDS011;63206;55.650;37.500;2022-09-09T03:27:36;8.70;;;3.33;;
70385;SDS011;63206;55.650;37.500;2022-09-09T03:30:06;10.27;;;3.20;;
70385;SDS011;63206;55.650;37.500;2022-09-09T03:32:37;8.05;;;3.55;;
70385;SDS011;63206;55.650;37.500;2022-09-09T03:35:09;6.88;;;2.85;;
70385;SDS011;63206;55.650;37.500;2022-09-09T03:37:35;7.20;;;3.03;;
70385;SDS011;63206;55.650;37.500;2022-09-09T03:40:04;7.53;;;3.00;;
70385;SDS011;63206;55.650;37.500;2022-09-09T03:42:30;6.88;;;3.13;;
70385;SDS011;63206;55.650;37.500;2022-09-09T03:45:00;8.85;;;3.45;;
70385;SDS011;63206;55.650;37.500;2022-09-09T03:47:28;10.10;;;3.63;;
70385;SDS011;63206;55.650;37.500;2022-09-09T03:50:06;9.23;;;3.45;;
70385;SDS011;63206;55.650;37.500;2022-09-09T03:52:39;8.27;;;3.20;;
70385;SDS011;63206;55.650;37.500;2022-09-09T03:55:11;12.43;;;3.10;;
70385;SDS011;63206;55.650;37.500;2022-09-09T03:57:40;8.63;;;3.20;;
70385;SDS011;63206;55.650;37.500;2022-09-09T04:00:09;9.90;;;3.67;;
70385;SDS011;63206;55.650;37.500;2022-09-09T04:02:44;7.88;;;3.20;;
70385;SDS011;63206;55.650;37.500;2022-09-09T04:05:21;10.23;;;3.50;;
70385;SDS011;63206;55.650;37.500;2022-09-09T04:07:50;7.55;;;3.33;;
70385;SDS011;63206;55.650;37.500;2022-09-09T04:10:26;8.05;;;2.97;;
70385;SDS011;63206;55.650;37.500;2022-09-09T04:12:54;8.32;;;3.10;;
70385;SDS011;63206;55.650;37.500;2022-09-09T04:15:27;7.32;;;3.42;;
70385;SDS011;63206;55.650;37.500;2022-09-09T04:17:53;7.93;;;3.05;;
70385;SDS011;63206;55.650;37.500;2022-09-09T04:20:19;7.63;;;3.13;;
70385;SDS011;63206;55.650;37.500;2022-09-09T04:22:49;9.00;;;3.20;;
70385;SDS011;63206;55.650;37.500;2022-09-09T04:25:17;9.15;;;3.60;;
70385;SDS011;63206;55.650;37.500;2022-09-09T04:27:43;7.05;;;3.15;;
70385;SDS011;63206;55.650;37.500;2022-09-09T04:30:09;8.57;;;3.40;;
70385;SDS011;63206;55.650;37.500;2022-09-09T04:32:36;7.45;;;2.97;;
70385;SDS011;63206;55.650;37.500;2022-09-09T04:35:03;9.88;;;3.50;;
70385;SDS011;63206;55.650;37.500;2022-09-09T04:37:29;8.45;;;3.95;;
70385;SDS011;63206;55.650;37.500;2022-09-09T04:39:58;8.70;;;3.13;;
70385;SDS011;63206;55.650;37.500;2022-09-09T04:42:34;8.98;;;3.22;;
70385;SDS011;63206;55.650;37.500;2022-09-09T04:45:04;10.75;;;3.13;;
70385;SDS011;63206;55.650;37.500;2022-09-09T04:47:30;9.10;;;3.40;;
70385;SDS011;63206;55.650;37.500;2022-09-09T04:50:02;8.13;;;3.40;;
70385;SDS011;63206;55.650;37.500;2022-09-09T04:52:28;7.22;;;3.15;;
70385;SDS011;63206;55.650;37.500;2022-09-09T04:54:58;7.40;;;3.28;;
70385;SDS011;63206;55.650;37.500;2022-09-09T04:57:27;13.65;;;3.90;;
70385;SDS011;63206;55.650;37.500;2022-09-09T04:59:57;7.43;;;3.00;;
70385;SDS011;63206;55.650;37.500;2022-09-09T05:02:27;7.82;;;2.90;;
70385;SDS011;63206;55.650;37.500;2022-09-09T05:04:59;6.30;;;2.88;;
70385;SDS011;63206;55.650;37.500;2022-09-09T05:07:30;6.07;;;2.85;;
70385;SDS011;63206;55.650;37.500;2022-09-09T05:10:02;7.90;;;3.13;;
70385;SDS011;63206;55.650;37.500;2022-09-09T05:12:36;7.25;;;2.70;;
70385;SDS011;63206;55.650;37.500;2022-09-09T05:15:07;10.23;;;3.13;;
70385;SDS011;63206;55.650;37.500;2022-09-09T05:17:38;10.88;;;2.92;;
70385;SDS011;63206;55.650;37.500;2022-09-09T05:20:05;7.60;;;2.72;;
70385;SDS011;63206;55.650;37.500;2022-09-09T05:22:37;7.55;;;3.10;;
70385;SDS011;63206;55.650;37.500;2022-09-09T05:25:06;7.93;;;3.13;;
70385;SDS011;63206;55.650;37.500;2022-09-09T05:27:34;9.05;;;3.33;;
70385;SDS011;63206;55.650;37.500;2022-09-09T05:30:03;7.18;;;2.67;;
70385;SDS011;63206;55.650;37.500;2022-09-09T05:32:32;7.05;;;2.88;;
70385;SDS011;63206;55.650;37.500;2022-09-09T05:35:02;9.15;;;3.13;;
70385;SDS011;63206;55.650;37.500;2022-09-09T05:37:31;7.10;;;2.50;;
70385;SDS011;63206;55.650;37.500;2022-09-09T05:39:58;8.50;;;2.75;;
70385;SDS011;63206;55.650;37.500;2022-09-09T05:42:33;6.72;;;2.45;;
70385;SDS011;63206;55.650;37.500;2022-09-09T05:45:00;7.03;;;2.80;;
70385;SDS011;63206;55.650;37.500;2022-09-09T05:47:32;7.65;;;2.60;;
70385;SDS011;63206;55.650;37.500;2022-09-09T05:50:04;6.85;;;2.88;;
70385;SDS011;63206;55.650;37.500;2022-09-09T05:52:30;7.40;;;2.60;;
70385;SDS011;63206;55.650;37.500;2022-09-09T05:57:30;5.15;;;2.50;;
70385;SDS011;63206;55.650;37.500;2022-09-09T05:59:56;7.55;;;2.85;;
70385;SDS011;63206;55.650;37.500;2022-09-09T06:02:25;8.68;;;2.75;;
70385;SDS011;63206;55.650;37.500;2022-09-09T06:04:54;5.72;;;2.40;;
70385;SDS011;63206;55.650;37.500;2022-09-09T06:07:29;9.38;;;2.85;;
70385;SDS011;63206;55.650;37.500;2022-09-09T06:12:27;6.35;;;2.30;;
70385;SDS011;63206;55.650;37.500;2022-09-09T06:14:53;6.68;;;2.30;;
70385;SDS011;63206;55.650;37.500;2022-09-09T06:17:20;6.57;;;2.65;;
70385;SDS011;63206;55.650;37.500;2022-09-09T06:19:49;5.57;;;2.70;;
70385;SDS011;63206;55.650;37.500;2022-09-09T06:22:15;8.48;;;2.60;;
70385;SDS011;63206;55.650;37.500;2022-09-09T06:24:44;5.28;;;2.25;;
70385;SDS011;63206;55.650;37.500;2022-09-09T06:27:13;6.30;;;2.30;;
70385;SDS011;63206;55.650;37.500;2022-09-09T06:29:39;4.65;;;2.10;;
70385;SDS011;63206;55.650;37.500;2022-09-09T06:32:05;3.80;;;1.85;;
70385;SDS011;63206;55.650;37.500;2022-09-09T06:34:37;5.20;;;2.20;;
70385;SDS011;63206;55.650;37.500;2022-09-09T06:37:05;5.50;;;2.10;;
70385;SDS011;63206;55.650;37.500;2022-09-09T06:39:39;3.97;;;1.88;;
70385;SDS011;63206;55.650;37.500;2022-09-09T06:42:09;6.70;;;2.20;;
70385;SDS011;63206;55.650;37.500;2022-09-09T06:44:58;8.02;;;2.22;;
70385;SDS011;63206;55.650;37.500;2022-09-09T06:47:35;5.55;;;2.00;;
70385;SDS011;63206;55.650;37.500;2022-09-09T06:50:01;8.13;;;2.95;;
70385;SDS011;63206;55.650;37.500;2022-09-09T06:52:34;6.22;;;2.20;;
70385;SDS011;63206;55.650;37.500;2022-09-09T06:55:09;4.20;;;2.00;;
70385;SDS011;63206;55.650;37.500;2022-09-09T06:57:38;2.58;;;1.63;;
70385;SDS011;63206;55.650;37.500;2022-09-09T07:00:10;3.85;;;1.40;;
70385;SDS011;63206;55.650;37.500;2022-09-09T07:02:42;4.00;;;1.70;;
70385;SDS011;63206;55.650;37.500;2022-09-09T07:05:12;5.05;;;1.85;;
70385;SDS011;63206;55.650;37.500;2022-09-09T07:07:43;8.55;;;1.90;;
70385;SDS011;63206;55.650;37.500;2022-09-09T07:10:16;4.72;;;1.65;;
70385;SDS011;63206;55.650;37.500;2022-09-09T07:12:51;4.65;;;1.80;;
70385;SDS011;63206;55.650;37.500;2022-09-09T07:15:24;5.75;;;2.15;;
70385;SDS011;63206;55.650;37.500;2022-09-09T07:18:00;4.40;;;1.75;;
70385;SDS011;63206;55.650;37.500;2022-09-09T07:20:31;5.63;;;2.40;;
70385;SDS011;63206;55.650;37.500;2022-09-09T07:23:06;5.20;;;1.80;;
70385;SDS011;63206;55.650;37.500;2022-09-09T07:25:34;4.38;;;1.70;;
70385;SDS011;63206;55.650;37.500;2022-09-09T07:28:06;5.68;;;1.80;;
70385;SDS011;63206;55.650;37.500;2022-09-09T07:30:35;4.78;;;1.77;;
70385;SDS011;63206;55.650;37.500;2022-09-09T07:33:07;5.03;;;1.73;;
70385;SDS011;63206;55.650;37.500;2022-09-09T07:35:42;5.75;;;1.80;;
70385;SDS011;63206;55.650;37.500;2022-09-09T07:38:10;4.88;;;1.83;;
70385;SDS011;63206;55.650;37.500;2022-09-09T07:40:37;3.83;;;1.45;;
70385;SDS011;63206;55.650;37.500;2022-09-09T07:43:05;4.60;;;1.60;;
70385;SDS011;63206;55.650;37.500;2022-09-09T07:45:34;3.08;;;1.25;;
70385;SDS011;63206;55.650;37.500;2022-09-09T07:48:04;4.25;;;1.60;;
70385;SDS011;63206;55.650;37.500;2022-09-09T07:50:31;1.85;;;1.30;;
70385;SDS011;63206;55.650;37.500;2022-09-09T07:52:59;3.90;;;1.52;;
70385;SDS011;63206;55.650;37.500;2022-09-09T07:55:26;4.22;;;1.50;;
70385;SDS011;63206;55.650;37.500;2022-09-09T07:57:55;4.32;;;1.65;;
70385;SDS011;63206;55.650;37.500;2022-09-09T08:02:58;3.72;;;1.60;;
70385;SDS011;63206;55.650;37.500;2022-09-09T08:05:30;10.23;;;2.30;;
70385;SDS011;63206;55.650;37.500;2022-09-09T08:07:59;4.57;;;1.65;;
70385;SDS011;63206;55.650;37.500;2022-09-09T08:10:29;6.72;;;1.70;;
70385;SDS011;63206;55.650;37.500;2022-09-09T08:12:58;4.28;;;1.70;;
70385;SDS011;63206;55.650;37.500;2022-09-09T08:15:29;2.55;;;1.70;;
70385;SDS011;63206;55.650;37.500;2022-09-09T08:17:57;3.00;;;1.52;;
70385;SDS011;63206;55.650;37.500;2022-09-09T08:20:25;1.30;;;1.20;;
70385;SDS011;63206;55.650;37.500;2022-09-09T08:22:55;12.93;;;2.00;;
70385;SDS011;63206;55.650;37.500;2022-09-09T08:25:24;3.20;;;1.48;;
70385;SDS011;63206;55.650;37.500;2022-09-09T08:27:53;2.75;;;1.40;;
70385;SDS011;63206;55.650;37.500;2022-09-09T08:30:19;2.28;;;1.30;;
70385;SDS011;63206;55.650;37.500;2022-09-09T08:32:49;1.80;;;1.40;;
70385;SDS011;63206;55.650;37.500;2022-09-09T08:35:17;2.25;;;1.23;;
70385;SDS011;63206;55.650;37.500;2022-09-09T08:37:52;1.63;;;1.20;;
70385;SDS011;63206;55.650;37.500;2022-09-09T08:40:26;3.17;;;1.65;;
70385;SDS011;63206;55.650;37.500;2022-09-09T08:42:55;3.83;;;1.40;;
70385;SDS011;63206;55.650;37.500;2022-09-09T08:48:00;1.58;;;1.10;;
70385;SDS011;63206;55.650;37.500;2022-09-09T08:50:35;3.25;;;1.50;;
70385;SDS011;63206;55.650;37.500;2022-09-09T08:53:43;5.10;;;1.63;;
70385;SDS011;63206;55.650;37.500;2022-09-09T08:56:14;3.42;;;1.58;;
70385;SDS011;63206;55.650;37.500;2022-09-09T08:58:47;2.80;;;1.50;;
70385;SDS011;63206;55.650;37.500;2022-09-09T09:04:26;2.38;;;1.50;;
70385;SDS011;63206;55.650;37.500;2022-09-09T09:12:22;3.95;;;1.70;;
70385;SDS011;63206;55.650;37.500;2022-09-09T09:14:50;4.18;;;1.60;;
70385;SDS011;63206;55.650;37.500;2022-09-09T09:17:25;3.15;;;1.75;;
70385;SDS011;63206;55.650;37.500;2022-09-09T09:19:58;2.35;;;1.58;;
70385;SDS011;63206;55.650;37.500;2022-09-09T09:36:13;3.33;;;1.70;;
70385;SDS011;63206;55.650;37.500;2022-09-09T09:39:01;3.97;;;1.55;;
70385;SDS011;63206;55.650;37.500;2022-09-09T09:41:41;1.90;;;1.50;;
70385;SDS011;63206;55.650;37.500;2022-09-09T09:44:26;2.22;;;1.55;;
70385;SDS011;63206;55.650;37.500;2022-09-09T09:49:36;2.70;;;1.50;;
70385;SDS011;63206;55.650;37.500;2022-09-09T09:52:06;2.78;;;1.73;;
70385;SDS011;63206;55.650;37.500;2022-09-09T09:54:41;3.97;;;1.48;;
70385;SDS011;63206;55.650;37.500;2022-09-09T09:57:16;4.45;;;1.67;;
70385;SDS011;63206;55.650;37.500;2022-09-09T09:59:48;3.08;;;1.58;;
70385;SDS011;63206;55.650;37.500;2022-09-09T10:02:46;2.33;;;1.50;;
70385;SDS011;63206;55.650;37.500;2022-09-09T10:05:19;3.90;;;1.60;;
70385;SDS011;63206;55.650;37.500;2022-09-09T10:11:04;1.90;;;1.60;;
70385;SDS011;63206;55.650;37.500;2022-09-09T10:21:48;2.33;;;1.70;;
70385;SDS011;63206;55.650;37.500;2022-09-09T10:37:22;3.53;;;1.50;;
70385;SDS011;63206;55.650;37.500;2022-09-09T10:42:42;3.10;;;1.70;;
70385;SDS011;63206;55.650;37.500;2022-09-09T10:50:18;5.55;;;2.30;;
70385;SDS011;63206;55.650;37.500;2022-09-09T10:55:20;3.22;;;1.77;;
70385;SDS011;63206;55.650;37.500;2022-09-09T10:57:51;3.88;;;1.77;;
70385;SDS011;63206;55.650;37.500;2022-09-09T11:00:24;5.95;;;2.88;;
70385;SDS011;63206;55.650;37.500;2022-09-09T11:02:56;3.78;;;1.77;;
70385;SDS011;63206;55.650;37.500;2022-09-09T11:08:00;4.53;;;1.58;;
70385;SDS011;63206;55.650;37.500;2022-09-09T11:10:43;3.33;;;1.83;;
70385;SDS011;63206;55.650;37.500;2022-09-09T11:16:12;5.07;;;2.00;;
70385;SDS011;63206;55.650;37.500;2022-09-09T11:18:49;3.20;;;1.40;;
70385;SDS011;63206;55.650;37.500;2022-09-09T11:21:24;3.63;;;1.58;;
70385;SDS011;63206;55.650;37.500;2022-09-09T11:24:01;2.88;;;1.50;;
70385;SDS011;63206;55.650;37.500;2022-09-09T11:26:32;1.50;;;1.30;;
70385;SDS011;63206;55.650;37.500;2022-09-09T11:29:44;2.20;;;1.40;;
70385;SDS011;63206;55.650;37.500;2022-09-09T11:34:50;3.88;;;1.52;;
70385;SDS011;63206;55.650;37.500;2022-09-09T11:37:26;4.75;;;1.75;;
70385;SDS011;63206;55.650;37.500;2022-09-09T11:42:46;4.82;;;1.60;;
70385;SDS011;63206;55.650;37.500;2022-09-09T11:47:50;3.40;;;1.60;;
70385;SDS011;63206;55.650;37.500;2022-09-09T11:52:47;3.92;;;1.70;;
70385;SDS011;63206;55.650;37.500;2022-09-09T11:58:01;5.05;;;1.58;;
70385;SDS011;63206;55.650;37.500;2022-09-09T12:00:31;1.75;;;1.25;;
70385;SDS011;63206;55.650;37.500;2022-09-09T12:02:58;3.65;;;2.00;;
70385;SDS011;63206;55.650;37.500;2022-09-09T12:05:37;2.90;;;1.45;;
70385;SDS011;63206;55.650;37.500;2022-09-09T12:08:08;3.75;;;1.38;;
70385;SDS011;63206;55.650;37.500;2022-09-09T12:10:35;3.35;;;1.60;;
70385;SDS011;63206;55.650;37.500;2022-09-09T12:13:20;2.45;;;1.60;;
70385;SDS011;63206;55.650;37.500;2022-09-09T12:15:47;2.35;;;1.45;;
70385;SDS011;63206;55.650;37.500;2022-09-09T12:18:26;2.60;;;1.52;;
70385;SDS011;63206;55.650;37.500;2022-09-09T12:29:10;2.80;;;1.70;;
70385;SDS011;63206;55.650;37.500;2022-09-09T12:32:00;2.20;;;1.60;;
70385;SDS011;63206;55.650;37.500;2022-09-09T12:39:59;3.95;;;1.60;;
70385;SDS011;63206;55.650;37.500;2022-09-09T12:42:28;2.40;;;1.60;;
70385;SDS011;63206;55.650;37.500;2022-09-09T12:44:58;2.88;;;1.60;;
70385;SDS011;63206;55.650;37.500;2022-09-09T12:47:31;3.90;;;1.65;;
70385;SDS011;63206;55.650;37.500;2022-09-09T12:50:02;4.63;;;1.70;;
70385;SDS011;63206;55.650;37.500;2022-09-09T12:52:32;4.40;;;1.40;;
70385;SDS011;63206;55.650;37.500;2022-09-09T12:55:03;5.28;;;1.70;;
70385;SDS011;63206;55.650;37.500;2022-09-09T12:57:37;2.75;;;1.58;;
70385;SDS011;63206;55.650;37.500;2022-09-09T13:00:15;2.83;;;1.50;;
70385;SDS011;63206;55.650;37.500;2022-09-09T13:03:16;4.13;;;1.80;;
70385;SDS011;63206;55.650;37.500;2022-09-09T13:05:39;2.40;;;1.60;;
70385;SDS011;63206;55.650;37.500;2022-09-09T13:08:08;2.47;;;1.50;;
70385;SDS011;63206;55.650;37.500;2022-09-09T13:10:37;10.25;;;3.08;;
70385;SDS011;63206;55.650;37.500;2022-09-09T13:13:20;7.15;;;1.80;;
70385;SDS011;63206;55.650;37.500;2022-09-09T13:15:59;9.15;;;2.10;;
70385;SDS011;63206;55.650;37.500;2022-09-09T13:18:37;3.67;;;1.50;;
70385;SDS011;63206;55.650;37.500;2022-09-09T13:21:08;3.00;;;1.60;;
70385;SDS011;63206;55.650;37.500;2022-09-09T13:23:36;4.57;;;1.60;;
70385;SDS011;63206;55.650;37.500;2022-09-09T13:26:04;2.65;;;1.45;;
70385;SDS011;63206;55.650;37.500;2022-09-09T13:28:34;3.25;;;1.50;;
70385;SDS011;63206;55.650;37.500;2022-09-09T13:31:04;2.17;;;1.42;;
70385;SDS011;63206;55.650;37.500;2022-09-09T13:33:36;3.33;;;1.60;;
70385;SDS011;63206;55.650;37.500;2022-09-09T13:36:09;2.65;;;1.50;;
70385;SDS011;63206;55.650;37.500;2022-09-09T13:41:23;2.40;;;1.52;;
70385;SDS011;63206;55.650;37.500;2022-09-09T13:43:50;6.55;;;1.95;;
70385;SDS011;63206;55.650;37.500;2022-09-09T13:54:00;2.47;;;1.45;;
70385;SDS011;63206;55.650;37.500;2022-09-09T13:56:27;2.55;;;1.35;;
70385;SDS011;63206;55.650;37.500;2022-09-09T13:58:53;4.63;;;1.80;;
70385;SDS011;63206;55.650;37.500;2022-09-09T14:01:19;8.02;;;2.63;;
70385;SDS011;63206;55.650;37.500;2022-09-09T14:03:45;5.10;;;1.58;;
70385;SDS011;63206;55.650;37.500;2022-09-09T14:06:11;2.53;;;1.52;;
70385;SDS011;63206;55.650;37.500;2022-09-09T14:08:36;9.40;;;1.60;;
70385;SDS011;63206;55.650;37.500;2022-09-09T14:11:04;2.13;;;1.30;;
70385;SDS011;63206;55.650;37.500;2022-09-09T14:13:30;2.60;;;1.45;;
70385;SDS011;63206;55.650;37.500;2022-09-09T14:15:56;2.72;;;1.33;;
70385;SDS011;63206;55.650;37.500;2022-09-09T14:18:22;3.90;;;1.50;;
70385;SDS011;63206;55.650;37.500;2022-09-09T14:20:51;3.50;;;1.70;;
70385;SDS011;63206;55.650;37.500;2022-09-09T14:23:17;1.60;;;1.30;;
70385;SDS011;63206;55.650;37.500;2022-09-09T14:25:47;4.28;;;1.58;;
70385;SDS011;63206;55.650;37.500;2022-09-09T14:28:17;3.65;;;1.50;;
70385;SDS011;63206;55.650;37.500;2022-09-09T14:30:43;3.00;;;1.45;;
70385;SDS011;63206;55.650;37.500;2022-09-09T14:33:13;3.85;;;1.55;;
70385;SDS011;63206;55.650;37.500;2022-09-09T14:35:40;2.42;;;1.60;;
70385;SDS011;63206;55.650;37.500;2022-09-09T14:38:07;5.30;;;1.60;;
70385;SDS011;63206;55.650;37.500;2022-09-09T14:40:34;2.58;;;1.55;;
70385;SDS011;63206;55.650;37.500;2022-09-09T14:43:00;6.47;;;2.17;;
70385;SDS011;63206;55.650;37.500;2022-09-09T14:45:31;4.32;;;1.75;;
70385;SDS011;63206;55.650;37.500;2022-09-09T14:47:58;5.93;;;1.90;;
70385;SDS011;63206;55.650;37.500;2022-09-09T14:50:25;4.40;;;1.70;;
70385;SDS011;63206;55.650;37.500;2022-09-09T14:52:51;5.43;;;2.22;;
70385;SDS011;63206;55.650;37.500;2022-09-09T14:55:19;3.85;;;1.70;;
70385;SDS011;63206;55.650;37.500;2022-09-09T14:57:47;8.88;;;2.53;;
70385;SDS011;63206;55.650;37.500;2022-09-09T15:00:15;5.85;;;2.00;;
70385;SDS011;63206;55.650;37.500;2022-09-09T15:02:41;8.38;;;2.17;;
70385;SDS011;63206;55.650;37.500;2022-09-09T15:05:10;6.88;;;2.50;;
70385;SDS011;63206;55.650;37.500;2022-09-09T15:07:36;6.05;;;2.30;;
70385;SDS011;63206;55.650;37.500;2022-09-09T15:10:06;7.32;;;2.30;;
70385;SDS011;63206;55.650;37.500;2022-09-09T15:12:32;7.90;;;2.35;;
70385;SDS011;63206;55.650;37.500;2022-09-09T15:15:01;6.72;;;2.30;;
70385;SDS011;63206;55.650;37.500;2022-09-09T15:17:28;8.00;;;2.63;;
70385;SDS011;63206;55.650;37.500;2022-09-09T15:19:54;5.68;;;2.35;;
70385;SDS011;63206;55.650;37.500;2022-09-09T15:22:20;6.80;;;2.40;;
70385;SDS011;63206;55.650;37.500;2022-09-09T15:24:47;3.75;;;1.83;;
70385;SDS011;63206;55.650;37.500;2022-09-09T15:27:19;5.18;;;2.00;;
70385;SDS011;63206;55.650;37.500;2022-09-09T15:29:45;3.97;;;1.85;;
70385;SDS011;63206;55.650;37.500;2022-09-09T15:32:11;5.75;;;2.15;;
70385;SDS011;63206;55.650;37.500;2022-09-09T15:34:37;4.15;;;1.95;;
70385;SDS011;63206;55.650;37.500;2022-09-09T15:37:03;3.97;;;1.80;;
70385;SDS011;63206;55.650;37.500;2022-09-09T15:39:29;7.10;;;2.22;;
70385;SDS011;63206;55.650;37.500;2022-09-09T15:41:57;6.50;;;2.75;;
70385;SDS011;63206;55.650;37.500;2022-09-09T15:44:23;4.88;;;2.00;;
70385;SDS011;63206;55.650;37.500;2022-09-09T15:46:52;5.20;;;1.90;;
70385;SDS011;63206;55.650;37.500;2022-09-09T15:49:20;4.97;;;1.98;;
70385;SDS011;63206;55.650;37.500;2022-09-09T15:51:57;3.97;;;1.80;;
70385;SDS011;63206;55.650;37.500;2022-09-09T15:54:24;5.78;;;2.30;;
70385;SDS011;63206;55.650;37.500;2022-09-09T15:56:53;6.35;;;2.22;;
70385;SDS011;63206;55.650;37.500;2022-09-09T15:59:24;4.82;;;1.98;;
70385;SDS011;63206;55.650;37.500;2022-09-09T16:01:50;6.28;;;2.03;;
70385;SDS011;63206;55.650;37.500;2022-09-09T16:04:19;8.48;;;2.40;;
70385;SDS011;63206;55.650;37.500;2022-09-09T16:06:50;3.35;;;1.95;;
70385;SDS011;63206;55.650;37.500;2022-09-09T16:09:16;3.55;;;1.75;;
70385;SDS011;63206;55.650;37.500;2022-09-09T16:11:42;4.20;;;2.00;;
70385;SDS011;63206;55.650;37.500;2022-09-09T16:14:09;6.22;;;2.10;;
70385;SDS011;63206;55.650;37.500;2022-09-09T16:16:35;4.43;;;2.00;;
70385;SDS011;63206;55.650;37.500;2022-09-09T16:19:08;5.13;;;2.33;;
70385;SDS011;63206;55.650;37.500;2022-09-09T16:21:36;5.63;;;2.30;;
70385;SDS011;63206;55.650;37.500;2022-09-09T16:24:03;5.82;;;2.40;;
70385;SDS011;63206;55.650;37.500;2022-09-09T16:26:30;7.75;;;2.55;;
70385;SDS011;63206;55.650;37.500;2022-09-09T16:28:57;7.50;;;2.90;;
70385;SDS011;63206;55.650;37.500;2022-09-09T16:31:24;5.90;;;2.85;;
70385;SDS011;63206;55.650;37.500;2022-09-09T16:33:51;6.60;;;2.30;;
70385;SDS011;63206;55.650;37.500;2022-09-09T16:36:18;6.10;;;2.38;;
70385;SDS011;63206;55.650;37.500;2022-09-09T16:38:44;6.25;;;2.67;;
70385;SDS011;63206;55.650;37.500;2022-09-09T16:41:11;5.20;;;2.20;;
70385;SDS011;63206;55.650;37.500;2022-09-09T16:43:37;4.75;;;2.00;;
70385;SDS011;63206;55.650;37.500;2022-09-09T16:46:11;6.90;;;2.15;;
70385;SDS011;63206;55.650;37.500;2022-09-09T16:48:37;7.13;;;2.35;;
70385;SDS011;63206;55.650;37.500;2022-09-09T16:51:06;5.93;;;2.10;;
70385;SDS011;63206;55.650;37.500;2022-09-09T16:53:35;5.18;;;2.05;;
70385;SDS011;63206;55.650;37.500;2022-09-09T16:56:07;7.13;;;2.85;;
70385;SDS011;63206;55.650;37.500;2022-09-09T16:58:34;7.05;;;2.30;;
70385;SDS011;63206;55.650;37.500;2022-09-09T17:01:09;6.20;;;2.20;;
70385;SDS011;63206;55.650;37.500;2022-09-09T17:03:36;7.10;;;2.40;;
70385;SDS011;63206;55.650;37.500;2022-09-09T17:06:13;7.90;;;2.40;;
70385;SDS011;63206;55.650;37.500;2022-09-09T17:08:42;13.95;;;2.65;;
70385;SDS011;63206;55.650;37.500;2022-09-09T17:11:12;6.18;;;2.50;;
70385;SDS011;63206;55.650;37.500;2022-09-09T17:13:40;9.50;;;2.63;;
70385;SDS011;63206;55.650;37.500;2022-09-09T17:16:06;7.43;;;2.33;;
70385;SDS011;63206;55.650;37.500;2022-09-09T17:18:36;6.28;;;2.30;;
70385;SDS011;63206;55.650;37.500;2022-09-09T17:21:03;6.00;;;2.30;;
70385;SDS011;63206;55.650;37.500;2022-09-09T17:23:29;6.35;;;2.85;;
70385;SDS011;63206;55.650;37.500;2022-09-09T17:26:01;9.38;;;2.53;;
70385;SDS011;63206;55.650;37.500;2022-09-09T17:28:28;6.18;;;2.40;;
70385;SDS011;63206;55.650;37.500;2022-09-09T17:30:59;7.45;;;2.50;;
70385;SDS011;63206;55.650;37.500;2022-09-09T17:33:30;6.20;;;2.80;;
70385;SDS011;63206;55.650;37.500;2022-09-09T17:35:59;10.13;;;2.70;;
70385;SDS011;63206;55.650;37.500;2022-09-09T17:38:25;8.57;;;2.80;;